createdAt,value
2022-10-04T00:02:34.010Z,16.30
2022-10-04T00:05:24.727Z,15.63
2022-10-04T00:08:35.528Z,17.47
2022-10-04T00:11:37.302Z,17.67
2022-10-04T00:14:30.900Z,17.93
2022-10-04T00:17:23.936Z,18.77
2022-10-04T00:20:53.273Z,20.50
2022-10-04T00:23:43.662Z,15.70
2022-10-04T00:26:30.542Z,17.40
2022-10-04T00:29:26.660Z,15.37
2022-10-04T00:32:13.608Z,16.90
2022-10-04T00:35:00.577Z,18.70
2022-10-04T00:37:59.442Z,18.63
2022-10-04T00:40:56.580Z,21.97
2022-10-04T00:43:47.832Z,16.47
2022-10-04T00:46:40.304Z,15.47
2022-10-04T00:49:34.077Z,16.40
2022-10-04T00:52:26.231Z,15.03
2022-10-04T00:55:33.446Z,15.77
2022-10-04T00:58:29.555Z,19.43
2022-10-04T01:01:23.370Z,12.93
2022-10-04T01:04:28.069Z,17.97
2022-10-04T01:07:21.242Z,20.80
2022-10-04T01:10:13.805Z,18.63
2022-10-04T01:13:09.712Z,16.23
2022-10-04T01:16:15.053Z,17.63
2022-10-04T01:19:24.430Z,23.17
2022-10-04T01:22:17.833Z,24.27
2022-10-04T01:25:05.166Z,31.37
2022-10-04T01:27:52.978Z,27.37
2022-10-04T01:30:40.071Z,21.47
2022-10-04T01:33:27.173Z,25.53
2022-10-04T01:36:14.198Z,23.33
2022-10-04T01:39:01.602Z,29.40
2022-10-04T01:41:48.518Z,25.40
2022-10-04T01:44:48.476Z,29.93
2022-10-04T01:47:48.499Z,23.93
2022-10-04T01:50:45.379Z,16.37
2022-10-04T01:53:40.643Z,31.37
2022-10-04T01:56:52.828Z,24.13
2022-10-04T01:59:51.185Z,22.60
2022-10-04T02:03:09.043Z,19.07
2022-10-04T02:06:00.717Z,18.67
2022-10-04T02:08:50.821Z,19.87
2022-10-04T02:11:41.346Z,23.03
2022-10-04T02:14:33.177Z,21.60
2022-10-04T02:17:28.234Z,19.80
2022-10-04T02:20:18.606Z,17.87
2022-10-04T02:23:06.144Z,14.90
2022-10-04T02:25:53.267Z,16.90
2022-10-04T02:28:40.686Z,18.77
2022-10-04T02:31:47.256Z,15.87
2022-10-04T02:34:34.740Z,16.60
2022-10-04T02:37:27.635Z,15.53
2022-10-04T02:40:19.796Z,17.47
2022-10-04T02:43:28.352Z,16.80
2022-10-04T02:46:27.307Z,12.87
2022-10-04T02:49:28.332Z,14.23
2022-10-04T02:52:18.200Z,13.43
2022-10-04T02:55:13.591Z,18.47
2022-10-04T02:58:01.418Z,13.70
2022-10-04T03:00:57.083Z,11.00
2022-10-04T03:03:47.284Z,18.40
2022-10-04T03:06:34.361Z,13.67
2022-10-04T03:09:27.402Z,10.50
2022-10-04T03:12:17.002Z,9.53
2022-10-04T03:15:06.466Z,10.30
2022-10-04T03:17:53.755Z,10.93
2022-10-04T03:20:41.223Z,9.60
2022-10-04T03:23:31.102Z,11.30
2022-10-04T03:26:36.429Z,14.00
2022-10-04T03:29:26.405Z,13.97
2022-10-04T03:32:16.538Z,12.00
2022-10-04T03:35:07.617Z,10.43
2022-10-04T03:37:56.896Z,11.53
2022-10-04T03:40:53.862Z,10.90
2022-10-04T03:43:50.189Z,8.80
2022-10-04T03:46:37.738Z,9.97
2022-10-04T03:49:37.003Z,9.20
2022-10-04T03:52:50.713Z,10.13
2022-10-04T03:55:43.520Z,7.70
2022-10-04T03:58:31.283Z,9.73
2022-10-04T04:01:44.926Z,10.30
2022-10-04T04:04:43.192Z,8.33
2022-10-04T04:07:46.290Z,9.10
2022-10-04T04:10:41.847Z,7.40
2022-10-04T04:13:45.722Z,11.20
2022-10-04T04:16:33.327Z,7.10
2022-10-04T04:19:24.741Z,9.83
2022-10-04T04:22:16.464Z,8.07
2022-10-04T04:25:08.262Z,9.40
2022-10-04T04:28:12.167Z,9.30
2022-10-04T04:31:04.493Z,9.43
2022-10-04T04:34:03.786Z,11.00
2022-10-04T04:36:52.752Z,11.13
2022-10-04T04:39:41.956Z,7.73
2022-10-04T04:42:34.784Z,10.43
2022-10-04T04:45:29.476Z,9.30
2022-10-04T04:48:18.803Z,9.70
2022-10-04T04:51:05.860Z,9.67
2022-10-04T04:53:54.848Z,10.60
2022-10-04T04:56:43.687Z,16.63
2022-10-04T04:59:31.034Z,12.17
2022-10-04T05:02:37.818Z,10.30
2022-10-04T05:05:27.068Z,13.97
2022-10-04T05:08:16.853Z,8.57
2022-10-04T05:11:08.346Z,12.27
2022-10-04T05:14:05.898Z,9.20
2022-10-04T05:16:55.850Z,6.87
2022-10-04T05:19:42.877Z,6.90
2022-10-04T05:22:31.732Z,10.30
2022-10-04T05:25:33.306Z,7.30
2022-10-04T05:28:20.492Z,9.80
2022-10-04T05:31:24.313Z,10.57
2022-10-04T05:34:30.398Z,9.53
2022-10-04T05:37:20.638Z,9.83
2022-10-04T05:40:13.478Z,9.27
2022-10-04T05:43:00.535Z,7.23
2022-10-04T05:45:48.834Z,6.17
2022-10-04T05:48:37.125Z,8.07
2022-10-04T05:51:30.710Z,9.97
2022-10-04T05:54:26.316Z,8.43
2022-10-04T05:57:30.600Z,10.93
2022-10-04T06:00:21.545Z,6.83
2022-10-04T06:03:21.005Z,10.97
2022-10-04T06:06:40.482Z,7.87
2022-10-04T06:09:50.947Z,6.53
2022-10-04T06:13:08.252Z,5.87
2022-10-04T06:16:24.724Z,8.73
2022-10-04T06:19:53.831Z,10.03
2022-10-04T06:22:48.172Z,6.87
2022-10-04T06:25:44.057Z,13.70
2022-10-04T06:28:35.949Z,4.60
2022-10-04T06:31:25.552Z,9.40
2022-10-04T06:34:50.112Z,7.33
2022-10-04T06:37:54.796Z,7.77
2022-10-04T06:41:02.668Z,7.50
2022-10-04T06:43:56.705Z,6.50
2022-10-04T06:47:04.969Z,10.83
2022-10-04T06:50:04.615Z,6.87
2022-10-04T06:53:03.004Z,11.47
2022-10-04T06:56:02.868Z,8.30
2022-10-04T06:59:20.798Z,9.87
2022-10-04T07:02:31.861Z,9.13
2022-10-04T07:05:33.776Z,10.50
2022-10-04T07:08:36.819Z,10.20
2022-10-04T07:11:30.142Z,8.93
2022-10-04T07:14:31.040Z,9.43
2022-10-04T07:17:26.916Z,9.33
2022-10-04T07:20:33.750Z,9.70
2022-10-04T07:23:48.394Z,6.47
2022-10-04T07:26:46.140Z,6.77
2022-10-04T07:29:41.982Z,8.87
2022-10-04T07:32:38.721Z,10.07
2022-10-04T07:35:43.806Z,8.80
2022-10-04T07:38:34.182Z,8.83
2022-10-04T07:41:39.215Z,16.37
2022-10-04T07:44:39.406Z,15.03
2022-10-04T07:47:27.822Z,13.07
2022-10-04T07:50:23.391Z,12.30
2022-10-04T07:53:24.092Z,10.73
2022-10-04T07:56:37.135Z,13.67
2022-10-04T08:00:02.998Z,8.93
2022-10-04T08:03:25.393Z,14.30
2022-10-04T08:06:34.524Z,10.73
2022-10-04T08:09:41.892Z,16.50
2022-10-04T08:12:57.124Z,10.50
2022-10-04T08:15:44.907Z,9.10
2022-10-04T08:19:27.566Z,13.90
2022-10-04T08:23:01.606Z,12.60
2022-10-04T08:26:12.794Z,9.30
2022-10-04T08:29:36.323Z,8.87
2022-10-04T08:32:29.750Z,14.43
2022-10-04T08:35:29.160Z,10.40
2022-10-04T08:38:34.829Z,12.73
2022-10-04T08:41:53.932Z,10.67
2022-10-04T08:45:23.249Z,9.90
2022-10-04T08:48:44.625Z,10.33
2022-10-04T08:51:52.880Z,9.90
2022-10-04T08:55:20.692Z,13.30
2022-10-04T08:58:41.219Z,8.97
2022-10-04T09:01:38.369Z,9.57
2022-10-04T09:04:56.708Z,14.33
2022-10-04T09:07:49.381Z,13.07
2022-10-04T09:11:10.364Z,11.70
2022-10-04T09:14:18.950Z,8.50
2022-10-04T09:17:42.220Z,12.33
2022-10-04T09:20:39.435Z,13.63
2022-10-04T09:23:34.066Z,14.17
2022-10-04T09:26:55.140Z,18.73
2022-10-04T09:29:51.877Z,11.80
2022-10-04T09:32:59.947Z,8.80
2022-10-04T09:35:53.727Z,12.07
2022-10-04T09:39:30.760Z,9.82
2022-10-04T09:42:40.487Z,8.43
2022-10-04T09:45:55.018Z,10.75
2022-10-04T09:48:59.996Z,8.48
2022-10-04T09:52:12.891Z,10.90
2022-10-04T09:55:36.736Z,10.07
2022-10-04T09:58:46.351Z,16.53
2022-10-04T10:01:57.539Z,13.57
2022-10-04T10:05:10.145Z,9.50
2022-10-04T10:08:13.304Z,11.30
2022-10-04T10:11:34.411Z,12.27
2022-10-04T10:14:42.461Z,14.20
2022-10-04T10:17:56.160Z,6.05
2022-10-04T10:21:10.673Z,14.53
2022-10-04T10:24:05.036Z,13.43
2022-10-04T10:27:03.525Z,11.18
2022-10-04T10:30:16.597Z,10.77
2022-10-04T10:33:21.958Z,7.87
2022-10-04T10:36:27.510Z,8.80
2022-10-04T10:39:25.997Z,11.80
2022-10-04T10:42:16.626Z,12.88
2022-10-04T10:45:20.431Z,9.40
2022-10-04T10:48:26.363Z,9.35
2022-10-04T10:51:35.735Z,10.75
2022-10-04T10:54:32.066Z,8.30
2022-10-04T10:58:06.449Z,11.20
2022-10-04T11:01:03.350Z,9.95
2022-10-04T11:03:55.919Z,11.25
2022-10-04T11:07:08.629Z,10.18
2022-10-04T11:10:32.294Z,7.38
2022-10-04T11:13:51.458Z,11.73
2022-10-04T11:17:07.693Z,9.95
2022-10-04T11:20:26.933Z,11.63
2022-10-04T11:23:14.477Z,9.05
2022-10-04T11:26:20.142Z,11.15
2022-10-04T11:29:26.163Z,12.80
2022-10-04T11:32:19.655Z,14.32
2022-10-04T11:35:25.209Z,12.57
2022-10-04T11:38:39.911Z,9.60
2022-10-04T11:41:39.325Z,13.10
2022-10-04T11:44:59.782Z,7.72
2022-10-04T11:47:56.070Z,11.77
2022-10-04T11:51:28.747Z,14.38
2022-10-04T11:54:47.830Z,9.98
2022-10-04T11:57:59.376Z,10.57
2022-10-04T12:01:14.116Z,11.55
2022-10-04T12:04:22.395Z,12.52
2022-10-04T12:07:42.487Z,11.13
2022-10-04T12:10:37.256Z,11.93
2022-10-04T12:13:47.722Z,11.30
2022-10-04T12:16:47.969Z,12.70
2022-10-04T12:20:09.884Z,12.85
2022-10-04T12:23:42.754Z,10.68
2022-10-04T12:27:07.464Z,11.52
2022-10-04T12:30:30.847Z,8.65
2022-10-04T12:34:14.600Z,8.25
2022-10-04T12:37:26.461Z,8.80
2022-10-04T12:40:33.088Z,7.85
2022-10-04T12:43:30.801Z,8.77
2022-10-04T12:46:36.038Z,8.25
2022-10-04T12:49:34.286Z,5.65
2022-10-04T12:52:27.703Z,8.02
2022-10-04T12:55:56.952Z,7.55
2022-10-04T12:58:58.961Z,7.05
2022-10-04T13:02:02.250Z,7.43
2022-10-04T13:05:02.982Z,8.98
2022-10-04T13:08:18.240Z,11.13
2022-10-04T13:11:28.759Z,8.20
2022-10-04T13:14:37.734Z,5.55
2022-10-04T13:17:50.294Z,7.72
2022-10-04T13:21:00.581Z,7.13
2022-10-04T13:24:05.180Z,7.93
2022-10-04T13:27:02.223Z,8.00
2022-10-04T13:30:06.115Z,7.90
2022-10-04T13:33:04.287Z,9.23
2022-10-04T13:36:17.331Z,7.88
2022-10-04T13:39:16.451Z,6.25
2022-10-04T13:42:21.569Z,8.95
2022-10-04T13:45:26.709Z,8.38
2022-10-04T13:48:25.497Z,5.40
2022-10-04T13:51:24.508Z,8.27
2022-10-04T13:54:48.184Z,5.03
2022-10-04T13:57:48.078Z,6.78
2022-10-04T14:01:02.996Z,9.10
2022-10-04T14:04:17.120Z,7.57
2022-10-04T14:07:22.636Z,6.97
2022-10-04T14:10:38.433Z,6.95
2022-10-04T14:13:56.499Z,5.28
2022-10-04T14:17:05.683Z,7.13
2022-10-04T14:20:29.914Z,7.88
2022-10-04T14:23:45.526Z,6.05
2022-10-04T14:27:02.089Z,10.30
2022-10-04T14:30:08.302Z,6.43
2022-10-04T14:33:01.456Z,9.68
2022-10-04T14:36:12.657Z,6.30
2022-10-04T14:39:21.257Z,6.47
2022-10-04T14:42:14.553Z,8.45
2022-10-04T14:45:20.066Z,7.57
2022-10-04T14:48:17.909Z,7.20
2022-10-04T14:51:27.617Z,5.97
2022-10-04T14:54:26.801Z,6.53
2022-10-04T14:57:50.003Z,7.32
2022-10-04T15:00:55.644Z,6.45
2022-10-04T15:03:49.136Z,6.77
2022-10-04T15:06:58.198Z,6.87
2022-10-04T15:10:03.393Z,5.95
2022-10-04T15:13:15.139Z,7.03
2022-10-04T15:16:14.623Z,5.20
2022-10-04T15:19:21.660Z,4.57
2022-10-04T15:22:22.003Z,5.65
2022-10-04T15:25:38.374Z,5.80
2022-10-04T15:28:50.960Z,7.50
2022-10-04T15:31:50.437Z,4.72
2022-10-04T15:35:00.717Z,6.33
2022-10-04T15:37:53.845Z,4.57
2022-10-04T15:40:54.157Z,5.32
2022-10-04T15:43:50.036Z,4.03
2022-10-04T15:47:08.259Z,5.38
2022-10-04T15:49:57.804Z,6.27
2022-10-04T15:52:44.701Z,4.70
2022-10-04T15:55:51.433Z,6.45
2022-10-04T15:59:26.733Z,6.23
2022-10-04T16:02:59.662Z,5.72
2022-10-04T16:06:01.796Z,8.27
2022-10-04T16:09:00.342Z,4.27
2022-10-04T16:12:20.250Z,5.33
2022-10-04T16:15:29.127Z,6.37
2022-10-04T16:18:44.671Z,4.23
2022-10-04T16:21:43.500Z,4.97
2022-10-04T16:24:39.485Z,7.60
2022-10-04T16:27:58.737Z,4.50
2022-10-04T16:31:21.125Z,3.87
2022-10-04T16:34:17.050Z,3.20
2022-10-04T16:37:10.186Z,3.30
2022-10-04T16:40:06.120Z,4.57
2022-10-04T16:43:03.896Z,4.80
2022-10-04T16:46:17.283Z,4.00
2022-10-04T16:49:37.589Z,3.80
2022-10-04T16:52:36.176Z,4.20
2022-10-04T16:55:46.748Z,5.13
2022-10-04T16:58:38.638Z,6.55
2022-10-04T17:02:00.535Z,3.30
2022-10-04T17:05:02.799Z,7.17
2022-10-04T17:08:17.194Z,6.13
2022-10-04T17:11:29.844Z,5.03
2022-10-04T17:14:55.244Z,8.63
2022-10-04T17:17:56.946Z,9.17
2022-10-04T17:20:47.149Z,8.87
2022-10-04T17:24:15.439Z,5.00
2022-10-04T17:27:26.304Z,4.00
2022-10-04T17:30:26.777Z,6.63
2022-10-04T17:33:30.408Z,7.40
2022-10-04T17:36:35.797Z,4.83
2022-10-04T17:39:33.934Z,5.07
2022-10-04T17:42:29.222Z,5.37
2022-10-04T17:45:40.159Z,5.07
2022-10-04T17:48:46.021Z,5.83
2022-10-04T17:52:08.016Z,6.63
2022-10-04T17:55:15.665Z,6.80
2022-10-04T17:58:12.309Z,6.43
2022-10-04T18:01:16.913Z,5.90
2022-10-04T18:04:20.873Z,7.50
2022-10-04T18:07:34.143Z,6.80
2022-10-04T18:11:03.524Z,5.23
2022-10-04T18:14:04.423Z,6.47
2022-10-04T18:16:55.979Z,4.80
2022-10-04T18:19:50.042Z,6.13
2022-10-04T18:22:55.454Z,5.60
2022-10-04T18:25:43.485Z,6.40
2022-10-04T18:28:34.562Z,4.40
2022-10-04T18:31:29.379Z,6.30
2022-10-04T18:34:18.738Z,4.77
2022-10-04T18:37:17.705Z,6.00
2022-10-04T18:40:22.462Z,5.83
2022-10-04T18:43:41.315Z,8.00
2022-10-04T18:46:38.331Z,4.90
2022-10-04T18:49:43.622Z,7.97
2022-10-04T18:52:48.645Z,5.77
2022-10-04T18:55:50.360Z,5.20
2022-10-04T18:59:23.581Z,4.53
2022-10-04T19:02:38.922Z,4.83
2022-10-04T19:05:43.409Z,3.40
2022-10-04T19:08:53.236Z,5.33
2022-10-04T19:11:52.084Z,6.83
2022-10-04T19:15:08.314Z,17.43
2022-10-04T19:18:07.607Z,10.03
2022-10-04T19:21:38.804Z,8.17
2022-10-04T19:24:39.668Z,7.93
2022-10-04T19:27:38.693Z,10.33
2022-10-04T19:30:41.412Z,10.07
2022-10-04T19:33:35.845Z,8.43
2022-10-04T19:36:39.164Z,13.93
2022-10-04T19:39:38.217Z,10.17
2022-10-04T19:42:49.746Z,6.90
2022-10-04T19:46:02.219Z,5.83
2022-10-04T19:48:51.296Z,5.43
2022-10-04T19:52:12.592Z,6.20
2022-10-04T19:55:17.427Z,9.53
2022-10-04T19:58:14.183Z,6.40
2022-10-04T20:01:01.609Z,9.10
2022-10-04T20:04:08.988Z,5.03
2022-10-04T20:06:58.226Z,6.80
2022-10-04T20:10:04.057Z,6.03
2022-10-04T20:13:21.057Z,8.07
2022-10-04T20:16:08.048Z,5.87
2022-10-04T20:18:59.626Z,4.53
2022-10-04T20:21:46.643Z,5.90
2022-10-04T20:24:36.324Z,4.57
2022-10-04T20:27:29.504Z,6.97
2022-10-04T20:30:16.586Z,5.60
2022-10-04T20:33:03.767Z,6.60
2022-10-04T20:36:00.124Z,7.07
2022-10-04T20:39:01.074Z,6.37
2022-10-04T20:42:19.592Z,6.77
2022-10-04T20:45:09.535Z,6.57
2022-10-04T20:47:59.489Z,5.77
2022-10-04T20:50:49.457Z,6.87
2022-10-04T20:53:46.594Z,6.50
2022-10-04T20:56:33.849Z,5.43
2022-10-04T20:59:22.163Z,5.03
2022-10-04T21:02:17.552Z,7.83
2022-10-04T21:05:24.748Z,9.67
2022-10-04T21:08:27.045Z,7.80
2022-10-04T21:11:20.636Z,6.27
2022-10-04T21:14:25.711Z,4.90
2022-10-04T21:18:05.988Z,5.33
2022-10-04T21:20:52.983Z,7.60
2022-10-04T21:23:39.882Z,6.30
2022-10-04T21:26:27.839Z,4.83
2022-10-04T21:29:14.797Z,6.50
2022-10-04T21:32:01.976Z,8.90
2022-10-04T21:34:53.620Z,6.20
2022-10-04T21:37:41.966Z,5.93
2022-10-04T21:40:28.949Z,9.70
2022-10-04T21:43:15.932Z,6.30
2022-10-04T21:46:02.994Z,7.10
2022-10-04T21:48:50.075Z,7.40
2022-10-04T21:51:37.429Z,6.13
2022-10-04T21:54:24.925Z,5.73
2022-10-04T21:57:12.349Z,6.90
2022-10-04T21:59:59.283Z,6.03
2022-10-04T22:02:46.288Z,5.87
2022-10-04T22:05:33.359Z,6.57
2022-10-04T22:08:20.267Z,9.33
2022-10-04T22:11:07.201Z,8.93
2022-10-04T22:13:54.137Z,4.83
2022-10-04T22:16:41.140Z,6.87
2022-10-04T22:19:28.238Z,10.03
2022-10-04T22:22:16.506Z,5.93
2022-10-04T22:25:10.242Z,7.37
2022-10-04T22:27:57.246Z,5.47
2022-10-04T22:30:44.348Z,9.10
2022-10-04T22:33:34.819Z,8.77
2022-10-04T22:36:34.351Z,9.23
2022-10-04T22:39:21.906Z,6.57
2022-10-04T22:42:12.658Z,7.30
2022-10-04T22:45:01.714Z,9.33
2022-10-04T22:47:49.337Z,8.90
2022-10-04T22:50:37.648Z,9.47
2022-10-04T22:53:24.815Z,7.13
2022-10-04T22:56:14.011Z,5.47
2022-10-04T22:59:00.976Z,7.90
2022-10-04T23:01:48.174Z,8.17
2022-10-04T23:04:35.174Z,8.63
2022-10-04T23:07:22.157Z,7.70
2022-10-04T23:10:10.224Z,7.27
2022-10-04T23:12:57.164Z,8.77
2022-10-04T23:15:44.267Z,6.13
2022-10-04T23:18:33.175Z,10.90
2022-10-04T23:21:24.900Z,6.97
2022-10-04T23:24:16.052Z,9.43
2022-10-04T23:27:03.828Z,6.73
2022-10-04T23:30:00.627Z,6.33
2022-10-04T23:32:50.122Z,7.57
2022-10-04T23:35:37.052Z,6.77
2022-10-04T23:38:25.144Z,8.53
2022-10-04T23:41:12.554Z,7.17
2022-10-04T23:43:59.548Z,7.23
2022-10-04T23:46:46.746Z,6.87
2022-10-04T23:49:34.244Z,8.37
2022-10-04T23:52:24.955Z,7.47
2022-10-04T23:55:19.092Z,9.07
2022-10-04T23:58:13.490Z,9.00
